Blue Oak Ranch Reserve, California Weather observations

Data are for 10 minute period ending at time listed.
 Day   Time   Solar   Ave.   Ave.  Ave.  Vector  Max.   Baro.   Total    
  of    of     Rad.   Air    Rel.  Wind   Wind   Wind  Press.  Precip.   
Year   Day            Temp.  Hum.  Speed  Dir.   Gust                    
2019   (PST)  Kw/m2    F      %     mph   deg.    mph    mb.     in.     
-------------------------------------------------------------------------
 143   11:00   1.01   60.4    74    6.3   141    10.1   944.0    0.00 
 143   11:10   1.05   61.3    72    6.0   148    10.7   944.0    0.00 
 143   11:20   0.48   61.2    72    4.4   178     9.4   944.2    0.00 
 143   11:30   0.86   61.6    72    4.9   155    10.2   944.1    0.00 
 143   11:40   0.84   64.7    66    5.1   243    10.2   944.1    0.00 
 143   11:50   0.68   64.2    66    4.3   214     7.7   944.2    0.00 
 143   12:00   0.58   63.1    68    3.2   190     7.0   944.2    0.00 
 143   12:10   1.02   64.8    63    4.6   255    11.8   944.2    0.00 
 143   12:20   1.02   66.1    60    7.1   281    12.3   944.2    0.00 
 143   12:30   1.00   65.6    60    5.7   276    11.1   944.2    0.00 
 143   12:40   1.01   66.0    58    5.5   256    12.6   944.3    0.00 
 143   12:50   0.97   66.1    56    5.7   268    10.4   944.3    0.00 
 143   13:00   1.00   66.4    55    6.6   267    13.9   944.3    0.00 
 143   13:10   0.95   67.0    54    6.0   247    13.4   944.3    0.00 
 143   13:20   0.97   66.7    55    5.4   235     9.6   944.4    0.00 
 143   13:30   0.98   67.0    53    6.2   248    12.9   944.5    0.00 
 143   13:40   1.01   67.5    54    7.1   250    14.0   944.5    0.00 
 143   13:50   0.95   67.1    53    6.5   229    13.0   944.5    0.00 
 143   14:00   0.84   67.1    54    6.4   243    12.6   944.5    0.00 
 143   14:10   0.69   66.7    54    4.6   255    10.2   944.5    0.00 
 143   14:20   1.00   67.5    52    6.7   257    14.4   944.4    0.00 
 143   14:30   0.74   67.8    52    6.9   239    15.0   944.4    0.00 
 143   14:40   0.81   66.6    56    3.5   231     8.8   944.5    0.00 
 143   14:50   0.83   68.0    53    7.0   221    14.9   944.5    0.00 
 143   15:00   0.70   67.7    54    6.2   234    10.6   944.5    0.00 
 143   15:10   0.31   66.2    58    4.6   255     9.6   944.5    0.00 
 143   15:20   0.19   64.8    61    4.8   200    14.3   944.6    0.00 
 143   15:30   0.12   62.3    65    5.7   163    11.1   944.7    0.00 
 143   15:40   0.14   60.9    68    5.8   159    10.4   944.8    0.00 
 143   15:50   0.21   61.2    68    4.5   177     9.4   945.0    0.00 
 143   16:00   0.16   60.6    72    4.2   173     7.4   945.0    0.00 
 143   16:10   0.20   59.8    74    4.5   164     9.9   945.2    0.00 
 143   16:20   0.23   59.3    75    3.6   157     9.1   945.2    0.00 
 143   16:30   0.41   59.3    75    6.2   155    10.5   945.3    0.00 
 143   16:40   0.28   59.2    75    4.5   158     8.3   945.3    0.00 
 143   16:50   0.14   58.0    77    4.7   153     8.2   945.3    0.00 
 143   17:00   0.10   56.8    80    4.3   155     8.0   945.4    0.00 
 143   17:10   0.09   56.3    82    2.8   145     5.9   945.5    0.00 
 143   17:20   0.14   56.1    82    3.3   151     6.1   945.6    0.00 
 143   17:30   0.25   56.7    81    2.9   162     5.6   945.6    0.00 
 143   17:40   0.14   56.4    82    3.8   152     5.9   945.6    0.00 
 143   17:50   0.18   56.5    82    2.6   150     4.0   945.7    0.00 
 143   18:00   0.32   57.1    82    4.2   160     6.7   945.6    0.00 
 143   18:10   0.24   56.5    83    4.5   160     7.5   945.7    0.00 
 143   18:20   0.18   56.4    82    4.3   159     6.5   945.7    0.00 
 143   18:30   0.13   55.2    85    5.8   155     8.8   945.7    0.00 
 143   18:40   0.08   54.4    86    4.0   163     8.1   945.8    0.00 
 143   18:50   0.05   53.3    88    4.3   157     8.2   946.0    0.00 
 143   19:00   0.03   52.4    90    4.3   153     8.0   946.3    0.00 
 143   19:10   0.01   52.1    91    1.6   149     4.1   946.5    0.00 
 143   19:20   0.00   51.7    92    2.6   144     6.1   946.7    0.00 
 143   19:30   0.00   51.3    92    2.0   159     4.5   946.8    0.00 
 143   19:40   0.00   51.2    93    2.1   149     5.3   947.0    0.00 
 143   19:50   0.00   51.2    93    2.1   140     4.4   947.4    0.00 
 143   20:00   0.00   51.1    93    3.2   160     6.3   947.6    0.00 
 143   20:10   0.00   50.8    93    3.4   148     6.3   947.8    0.00 
 143   20:20   0.00   50.6    93    3.6   161     5.6   947.8    0.00 
 143   20:30   0.00   50.4    93    3.2   140     5.1   947.9    0.00 
 143   20:40   0.00   50.4    93    3.0   159     4.7   948.1    0.00 
 143   20:50   0.00   50.2    93    3.1   156     5.3   948.3    0.00 
 143   21:00   0.00   50.2    93    3.5   160     6.1   948.6    0.00 
 143   21:10   0.00   50.1    93    3.4   154     6.0   948.5    0.00 
 143   21:20   0.00   50.0    94    2.6   134     6.0   948.4    0.00 
 143   21:30   0.00   49.9    94    1.5   125     4.5   948.4    0.00 
 143   21:40   0.00   49.8    94    2.8   162     5.7   948.5    0.00 
 143   21:50   0.00   49.8    94    2.2   154     5.0   948.6    0.00 
 143   22:00   0.00   49.9    94    1.3   130     4.2   948.6    0.00 
 143   22:10   0.00   49.8    94    1.9   144     3.9   948.6    0.00 
 143   22:20   0.00   49.6    94    2.9   166     5.5   948.7    0.00 
 143   22:30   0.00   49.4    94    4.1   157     8.3   948.8    0.00 
 143   22:40   0.00   49.3    95    2.2   157     4.6   948.9    0.00 
 143   22:50   0.00   49.3    95    1.1    85     2.6   949.0    0.00 
 143   23:00   0.00   49.1    95    0.7   114     1.8   949.1    0.00 
 143   23:10   0.00   49.0    95    1.4   142     2.9   949.2    0.00 
 143   23:20   0.00   49.0    95    0.3   135     1.3   949.2    0.00 
 143   23:30   0.00   49.1    95    1.7    80     4.7   949.2    0.00 
 143   23:40   0.00   49.3    95    2.1   108     5.6   949.2    0.00 
 143   23:50   0.00   49.6    95    2.0   116     6.3   949.3    0.00 
 144    0:00   0.00   49.6    95    4.3   134     8.5   949.4    0.00 
 144    0:10   0.00   49.4    95    5.3   144     9.3   949.3    0.00 
 144    0:20   0.00   49.4    95    2.6   142     6.4   949.4    0.00 
 144    0:30   0.00   49.4    95    1.7   150     3.9   949.4    0.00 
 144    0:40   0.00   49.4    95    2.6   146     5.1   949.4    0.00 
 144    0:50   0.00   49.3    95    1.8   120     6.2   949.4    0.00 
 144    1:00   0.00   49.3    95    1.9   114     4.5   949.4    0.00 
 144    1:10   0.00   49.3    95    2.1    88     5.0   949.4    0.00 
 144    1:20   0.00   49.3    95    2.0    79     3.4   949.4    0.00 
 144    1:30   0.00   49.3    95    1.4    73     4.0   949.5    0.00 
 144    1:40   0.00   49.3    95    1.6   121     2.9   949.4    0.00 
 144    1:50   0.00   49.3    95    2.5   132     6.4   949.5    0.00 
 144    2:00   0.00   49.3    95    3.8   152     8.4   949.5    0.00 
 144    2:10   0.00   49.2    95    3.6   126     6.6   949.4    0.00 
 144    2:20   0.00   49.3    95    1.9   119     6.3   949.4    0.00 
 144    2:30   0.00   49.3    95    2.3   138     6.0   949.4    0.00 
 144    2:40   0.00   49.2    95    1.3   136     3.6   949.4    0.00 
 144    2:50   0.00   49.3    95    1.3   135     3.9   949.4    0.00 
 144    3:00   0.00   49.2    95    2.6   155     6.0   949.4    0.00 
 144    3:10   0.00   49.1    95    2.7   113     5.0   949.3    0.00 
 144    3:20   0.00   49.1    95    2.0   117     5.6   949.3    0.00 
 144    3:30   0.00   49.0    95    1.8    88     5.0   949.3    0.00 
 144    3:40   0.00   48.8    95    2.6   119     6.7   949.3    0.00 
 144    3:50   0.00   48.5    95    4.0   136     8.3   949.3    0.00 
 144    4:00   0.00   48.4    95    4.5   130     9.3   949.4    0.00 
 144    4:10   0.00   48.3    95    3.3   120     8.6   949.4    0.00 
 144    4:20   0.00   48.5    95    2.5    92     5.4   949.4    0.00 
 144    4:30   0.00   48.4    95    2.5    86     5.1   949.4    0.00 
 144    4:40   0.00   48.3    95    2.4    78     5.5   949.4    0.00 
 144    4:50   0.00   48.3    95    2.7    75     4.7   949.4    0.00 
 144    5:00   0.00   48.2    95    2.5    87     5.8   949.4    0.00 
 144    5:10   0.01   48.0    94    2.0    76     5.7   949.4    0.00 
 144    5:20   0.02   48.0    95    3.0    97     5.8   949.4    0.00 
 144    5:30   0.03   48.1    95    1.8    70     3.9   949.5    0.00 
 144    5:40   0.04   48.2    94    2.6    76     5.0   949.6    0.00 
 144    5:50   0.10   48.5    94    2.6   110     5.8   949.5    0.00 
 144    6:00   0.08   48.8    94    2.9   107     6.8   949.6    0.00 
 144    6:10   0.06   48.7    94    2.6   127     6.3   949.7    0.00 
 144    6:20   0.06   49.1    94    1.7   110     5.0   949.8    0.00 
 144    6:30   0.09   49.0    94    3.2   127     5.8   949.9    0.00 
 144    6:40   0.12   49.3    94    3.0   122     7.0   950.0    0.00 
 144    6:50   0.13   50.0    93    1.4   110     4.3   950.0    0.00 
 144    7:00   0.10   50.1    92    2.5   167     6.6   950.1    0.00 
 144    7:10   0.11   49.9    92    2.8   168     6.5   950.1    0.00 
 144    7:20   0.15   50.1    92    2.1   168     5.6   950.2    0.00 
 144    7:30   0.18   51.1    91    1.8    87     4.2   950.2    0.00 
 144    7:40   0.25   51.3    90    2.6   138     6.0   950.2    0.00 
 144    7:50   0.31   52.3    88    2.5   122     6.4   950.1    0.00 
 144    8:00   0.43   54.1    85    2.0    62     4.7   950.1    0.00 
 144    8:10   0.59   55.2    81    3.1   174     6.5   950.1    0.00 
 144    8:20   0.64   55.8    80    2.8   155     5.0   950.1    0.00 
 144    8:30   0.73   56.5    78    3.1   139     6.0   950.1    0.00 
 144    8:40   0.74   56.4    78    3.8   132     6.5   950.1    0.00 
 144    8:50   0.72   57.1    77    3.0   127     6.5   950.0    0.00 
 144    9:00   0.70   57.8    75    3.3   134     6.1   950.0    0.00 
 144    9:10   0.72   58.4    74    3.1   156     7.4   949.9    0.00 
 144    9:20   0.75   59.8    73    2.9   244     7.0   950.0    0.00 
 144    9:30   0.74   61.2    70    4.1   262     6.9   950.1    0.00 
 144    9:40   0.74   61.5    71    3.9   256     8.5   950.1    0.00 
 144    9:50   0.82   62.1    69    4.4   253     8.0   950.1    0.00 
 144   10:00   0.84   62.9    68    4.0   264     7.8   950.1    0.00 
 144   10:10   0.86   63.1    67    5.7   253     9.7   950.2    0.00 
 144   10:20   0.88   62.8    67    6.1   257    12.6   950.3    0.00 
 144   10:30   0.89   63.1    66    5.8   253     9.9   950.4    0.00 
 144   10:40   0.91   63.6    65    3.9   268     8.4   950.4    0.00 
 144   10:50   0.92   63.7    65    5.7   261    10.7   950.4    0.00 

Return to Blue Oak Ranch Reserve graphs page.


Western Regional Climate Center,wrcc@dri.edu